createdAt,value
2018-11-21T00:00:14.042Z,29.73
2018-11-21T00:02:42.662Z,29.43
2018-11-21T00:05:11.299Z,28.47
2018-11-21T00:07:39.859Z,28.83
2018-11-21T00:10:10.476Z,28.63
2018-11-21T00:12:39.832Z,28.83
2018-11-21T00:15:10.208Z,29.00
2018-11-21T00:17:38.852Z,30.13
2018-11-21T00:20:09.108Z,28.47
2018-11-21T00:22:37.708Z,29.77
2018-11-21T00:25:06.298Z,29.23
2018-11-21T00:27:34.882Z,29.97
2018-11-21T00:30:03.493Z,29.20
2018-11-21T00:32:32.083Z,29.40
2018-11-21T00:35:00.686Z,29.17
2018-11-21T00:37:29.239Z,28.67
2018-11-21T00:39:57.843Z,28.97
2018-11-21T00:42:26.454Z,28.37
2018-11-21T00:44:55.011Z,29.87
2018-11-21T00:47:23.610Z,28.90
2018-11-21T00:49:52.161Z,29.93
2018-11-21T00:52:20.784Z,30.40
2018-11-21T00:54:49.358Z,28.70
2018-11-21T00:57:17.910Z,30.07
2018-11-21T00:59:46.517Z,29.77
2018-11-21T01:02:15.079Z,30.80
2018-11-21T01:04:43.678Z,28.80
2018-11-21T01:07:12.257Z,29.73
2018-11-21T01:09:40.864Z,30.47
2018-11-21T01:12:09.408Z,29.50
2018-11-21T01:14:38.012Z,29.00
2018-11-21T01:17:06.555Z,30.13
2018-11-21T01:19:35.118Z,29.87
2018-11-21T01:22:03.702Z,29.67
2018-11-21T01:24:32.295Z,31.03
2018-11-21T01:27:00.846Z,30.13
2018-11-21T01:29:29.406Z,31.20
2018-11-21T01:31:58.020Z,29.53
2018-11-21T01:34:26.559Z,30.17
2018-11-21T01:36:55.168Z,31.80
2018-11-21T01:39:23.770Z,30.40
2018-11-21T01:41:52.361Z,30.93
2018-11-21T01:44:20.956Z,30.97
2018-11-21T01:46:49.566Z,29.60
2018-11-21T01:49:18.156Z,31.73
2018-11-21T01:51:46.756Z,30.40
2018-11-21T01:54:15.378Z,30.93
2018-11-21T01:56:43.936Z,31.63
2018-11-21T01:59:12.494Z,31.03
2018-11-21T02:01:41.077Z,31.00
2018-11-21T02:04:09.709Z,31.50
2018-11-21T02:06:38.347Z,30.70
2018-11-21T02:09:10.007Z,31.33
2018-11-21T02:11:38.766Z,30.43
2018-11-21T02:14:07.444Z,32.97
2018-11-21T02:16:36.056Z,30.93
2018-11-21T02:19:04.974Z,32.30
2018-11-21T02:21:33.552Z,32.37
2018-11-21T02:24:02.141Z,34.83
2018-11-21T02:26:30.726Z,34.27
2018-11-21T02:28:59.314Z,32.63
2018-11-21T02:31:27.940Z,33.80
2018-11-21T02:33:56.499Z,32.17
2018-11-21T02:36:25.150Z,32.83
2018-11-21T02:38:53.708Z,34.67
2018-11-21T02:41:22.335Z,33.17
2018-11-21T02:43:50.926Z,32.57
2018-11-21T02:46:19.527Z,32.73
2018-11-21T02:48:48.436Z,32.83
2018-11-21T02:51:17.006Z,32.33
2018-11-21T02:53:45.616Z,32.30
2018-11-21T02:56:14.206Z,32.37
2018-11-21T02:58:42.810Z,32.17
2018-11-21T03:01:11.404Z,32.40
2018-11-21T03:03:40.004Z,30.77
2018-11-21T03:06:08.572Z,32.23
2018-11-21T03:08:37.198Z,33.53
2018-11-21T03:11:05.781Z,31.70
2018-11-21T03:13:34.396Z,32.17
2018-11-21T03:16:02.973Z,31.30
2018-11-21T03:18:31.590Z,31.67
2018-11-21T03:21:00.180Z,32.27
2018-11-21T03:23:28.776Z,31.83
2018-11-21T03:25:57.380Z,30.43
2018-11-21T03:28:25.950Z,31.57
2018-11-21T03:30:54.553Z,30.97
2018-11-21T03:33:23.173Z,29.57
2018-11-21T03:35:51.735Z,30.93
2018-11-21T03:38:20.366Z,32.17
2018-11-21T03:40:48.972Z,31.23
2018-11-21T03:43:17.550Z,30.73
2018-11-21T03:45:46.138Z,30.30
2018-11-21T03:48:14.744Z,30.90
2018-11-21T03:50:43.303Z,31.10
2018-11-21T03:53:11.915Z,31.33
2018-11-21T03:55:40.514Z,31.07
2018-11-21T03:58:09.322Z,30.67
2018-11-21T04:00:37.870Z,29.23
2018-11-21T04:03:06.475Z,30.97
2018-11-21T04:05:35.027Z,28.67
2018-11-21T04:08:03.579Z,30.43
2018-11-21T04:10:32.186Z,30.53
2018-11-21T04:13:00.755Z,30.10
2018-11-21T04:15:29.486Z,29.77
2018-11-21T04:17:58.034Z,30.07
2018-11-21T04:20:26.664Z,29.23
2018-11-21T04:22:55.390Z,29.00
2018-11-21T04:25:23.979Z,30.50
2018-11-21T04:27:52.577Z,30.50
2018-11-21T04:30:21.135Z,27.87
2018-11-21T04:32:49.696Z,30.70
2018-11-21T04:35:18.302Z,30.13
2018-11-21T04:37:46.851Z,30.27
2018-11-21T04:40:15.461Z,30.03
2018-11-21T04:42:44.023Z,29.43
2018-11-21T04:45:12.614Z,29.43
2018-11-21T04:47:41.164Z,28.37
2018-11-21T04:50:09.808Z,29.63
2018-11-21T04:52:38.398Z,30.93
2018-11-21T04:55:07.998Z,28.20
2018-11-21T04:57:36.637Z,30.33
2018-11-21T05:00:07.294Z,31.17
2018-11-21T05:02:35.839Z,30.37
2018-11-21T05:05:04.816Z,30.90
2018-11-21T05:07:33.406Z,30.40
2018-11-21T05:10:02.023Z,29.83
2018-11-21T05:12:30.681Z,29.97
2018-11-21T05:14:59.230Z,29.27
2018-11-21T05:17:27.831Z,29.33
2018-11-21T05:19:56.402Z,30.70
2018-11-21T05:22:25.000Z,31.40
2018-11-21T05:24:53.566Z,29.73
2018-11-21T05:27:22.272Z,30.53
2018-11-21T05:29:50.864Z,29.97
2018-11-21T05:32:19.459Z,28.10
2018-11-21T05:34:48.059Z,30.03
2018-11-21T05:37:16.619Z,30.07
2018-11-21T05:39:45.229Z,29.80
2018-11-21T05:42:13.820Z,29.00
2018-11-21T05:44:42.578Z,30.47
2018-11-21T05:47:11.204Z,28.33
2018-11-21T05:49:39.813Z,31.43
2018-11-21T05:52:08.396Z,28.77
2018-11-21T05:54:36.987Z,28.87
2018-11-21T05:57:05.595Z,29.20
2018-11-21T05:59:34.199Z,28.87
2018-11-21T06:02:02.806Z,28.37
2018-11-21T06:04:31.399Z,29.20
2018-11-21T06:07:00.001Z,28.60
2018-11-21T06:09:28.580Z,29.23
2018-11-21T06:11:57.177Z,29.43
2018-11-21T06:14:25.736Z,28.83
2018-11-21T06:16:54.328Z,29.30
2018-11-21T06:19:22.904Z,29.37
2018-11-21T06:21:51.513Z,28.00
2018-11-21T06:24:20.171Z,27.87
2018-11-21T06:26:54.213Z,29.23
2018-11-21T06:29:22.831Z,28.97
2018-11-21T06:31:51.437Z,28.27
2018-11-21T06:34:20.049Z,27.87
2018-11-21T06:36:48.643Z,28.37
2018-11-21T06:39:18.179Z,29.53
2018-11-21T06:41:46.339Z,28.77
2018-11-21T06:44:14.893Z,28.40
2018-11-21T06:46:43.561Z,28.80
2018-11-21T06:49:12.518Z,28.60
2018-11-21T06:51:41.317Z,27.57
2018-11-21T06:54:11.997Z,28.90
2018-11-21T06:56:40.638Z,29.00
2018-11-21T06:59:09.241Z,28.17
2018-11-21T07:01:38.882Z,29.50
2018-11-21T07:04:07.506Z,28.73
2018-11-21T07:06:36.073Z,28.10
2018-11-21T07:09:08.325Z,28.60
2018-11-21T07:11:37.193Z,27.30
2018-11-21T07:14:07.215Z,29.07
2018-11-21T07:16:35.509Z,27.43
2018-11-21T07:19:04.163Z,27.97
2018-11-21T07:21:32.858Z,28.33
2018-11-21T07:24:01.479Z,28.33
2018-11-21T07:26:30.182Z,27.03
2018-11-21T07:28:58.814Z,28.17
2018-11-21T07:31:27.368Z,27.67
2018-11-21T07:33:56.052Z,28.23
2018-11-21T07:36:24.893Z,28.97
2018-11-21T07:38:53.863Z,28.63
2018-11-21T07:41:22.471Z,27.77
2018-11-21T07:43:51.323Z,27.07
2018-11-21T07:46:20.049Z,27.53
2018-11-21T07:48:48.616Z,29.00
2018-11-21T07:51:17.401Z,27.97
2018-11-21T07:53:46.392Z,27.93
2018-11-21T07:57:02.853Z,28.23
2018-11-21T07:59:32.012Z,27.33
2018-11-21T08:02:12.507Z,27.60
2018-11-21T08:04:48.252Z,27.57
2018-11-21T08:07:30.595Z,29.23
2018-11-21T08:10:14.814Z,26.87
2018-11-21T08:13:05.462Z,26.40
2018-11-21T08:16:08.261Z,26.23
2018-11-21T08:19:02.082Z,24.50
2018-11-21T08:21:49.747Z,26.43
2018-11-21T08:24:37.503Z,25.53
2018-11-21T08:27:30.847Z,25.10
2018-11-21T08:29:59.384Z,25.53
2018-11-21T08:32:27.992Z,25.07
2018-11-21T08:34:58.780Z,23.27
2018-11-21T08:37:27.364Z,22.57
2018-11-21T08:39:56.052Z,25.17
2018-11-21T08:42:24.607Z,23.50
2018-11-21T08:44:53.325Z,23.53
2018-11-21T08:47:21.884Z,24.63
2018-11-21T08:49:50.449Z,24.70
2018-11-21T08:52:19.042Z,24.63
2018-11-21T08:54:47.666Z,23.50
2018-11-21T08:57:16.252Z,24.13
2018-11-21T08:59:44.807Z,22.53
2018-11-21T09:02:13.397Z,23.57
2018-11-21T09:04:42.562Z,22.73
2018-11-21T09:07:10.522Z,21.73
2018-11-21T09:09:39.061Z,22.53
2018-11-21T09:12:08.817Z,22.53
2018-11-21T09:14:36.205Z,22.27
2018-11-21T09:17:04.776Z,22.20
2018-11-21T09:19:33.364Z,22.40
2018-11-21T09:22:02.055Z,21.53
2018-11-21T09:24:30.686Z,22.20
2018-11-21T09:26:59.249Z,22.37
2018-11-21T09:29:27.837Z,21.90
2018-11-21T09:31:56.395Z,21.63
2018-11-21T09:34:24.929Z,23.17
2018-11-21T09:36:53.552Z,22.00
2018-11-21T09:39:22.138Z,21.23
2018-11-21T09:41:50.700Z,22.40
2018-11-21T09:44:19.267Z,22.27
2018-11-21T09:46:47.864Z,21.23
2018-11-21T09:49:16.422Z,22.83
2018-11-21T09:51:45.025Z,21.87
2018-11-21T09:54:13.623Z,21.33
2018-11-21T09:56:42.208Z,21.13
2018-11-21T09:59:13.382Z,22.27
2018-11-21T10:02:18.601Z,22.30
2018-11-21T10:04:47.329Z,21.73
2018-11-21T10:07:15.871Z,21.67
2018-11-21T10:09:46.292Z,22.40
2018-11-21T10:12:14.841Z,22.07
2018-11-21T10:14:43.429Z,23.27
2018-11-21T10:17:12.155Z,23.13
2018-11-21T10:19:40.912Z,21.50
2018-11-21T10:22:09.577Z,21.53
2018-11-21T10:24:38.171Z,22.93
2018-11-21T10:27:06.981Z,23.07
2018-11-21T10:29:35.602Z,21.90
2018-11-21T10:32:04.260Z,22.13
2018-11-21T10:34:32.840Z,23.47
2018-11-21T10:37:01.595Z,22.63
2018-11-21T10:39:30.348Z,22.63
2018-11-21T10:41:59.055Z,21.90
2018-11-21T10:44:27.581Z,22.47
2018-11-21T10:46:56.228Z,22.60
2018-11-21T10:49:24.931Z,20.83
2018-11-21T10:51:53.667Z,21.97
2018-11-21T10:54:22.215Z,21.23
2018-11-21T10:56:50.796Z,21.43
2018-11-21T10:59:19.348Z,21.60
2018-11-21T12:43:50.366Z,22.23
2018-11-21T12:46:43.839Z,22.40
2018-11-21T12:49:37.200Z,22.40
2018-11-21T12:52:12.672Z,23.87
2018-11-21T12:55:09.276Z,22.50
2018-11-21T12:58:00.046Z,23.13
2018-11-21T13:00:47.815Z,22.60
2018-11-21T13:03:41.212Z,22.23
2018-11-21T13:06:28.969Z,22.30
2018-11-21T13:09:21.812Z,23.13
2018-11-21T13:12:03.616Z,21.23
2018-11-21T13:14:46.326Z,20.77
2018-11-21T13:17:39.805Z,23.63
2018-11-21T13:20:42.539Z,20.80
2018-11-21T13:23:28.867Z,21.47
2018-11-21T13:26:12.447Z,21.30
2018-11-21T13:29:10.073Z,20.93
2018-11-21T13:31:57.050Z,21.53
2018-11-21T13:34:43.801Z,21.27
2018-11-21T13:37:29.894Z,21.50
2018-11-21T13:40:20.370Z,20.47
2018-11-21T13:43:23.298Z,20.07
2018-11-21T13:46:03.125Z,21.40
2018-11-21T13:48:55.656Z,20.13
2018-11-21T13:51:40.128Z,21.70
2018-11-21T13:54:30.402Z,21.50
2018-11-21T13:56:58.971Z,22.30
2018-11-21T13:59:27.584Z,23.07
2018-11-21T14:01:56.163Z,22.17
2018-11-21T14:04:24.802Z,23.07
2018-11-21T14:06:53.363Z,22.13
2018-11-21T14:09:23.019Z,21.63
2018-11-21T14:11:51.988Z,21.43
2018-11-21T14:14:20.808Z,22.23
2018-11-21T14:16:49.451Z,22.10
2018-11-21T14:19:18.066Z,22.23
2018-11-21T14:21:46.630Z,21.90
2018-11-21T14:24:15.248Z,21.63
2018-11-21T14:26:43.929Z,22.23
2018-11-21T14:29:12.541Z,23.00
2018-11-21T14:31:41.180Z,24.50
2018-11-21T14:34:09.755Z,24.10
2018-11-21T14:36:38.377Z,24.13
2018-11-21T14:39:10.310Z,24.47
2018-11-21T14:41:39.795Z,23.20
2018-11-21T14:44:08.827Z,24.07
2018-11-21T14:46:37.476Z,25.20
2018-11-21T14:49:06.697Z,23.73
2018-11-21T14:51:35.326Z,24.40
2018-11-21T14:54:03.874Z,25.10
2018-11-21T14:56:32.478Z,24.77
2018-11-21T14:59:01.098Z,24.93
2018-11-21T15:01:29.649Z,23.73
2018-11-21T15:03:58.203Z,23.87
2018-11-21T15:06:26.858Z,23.37
2018-11-21T15:08:55.367Z,23.60
2018-11-21T15:11:23.988Z,23.57
2018-11-21T15:13:52.547Z,23.00
2018-11-21T15:16:21.172Z,23.43
2018-11-21T15:18:49.726Z,22.83
2018-11-21T15:21:18.353Z,23.47
2018-11-21T15:23:47.004Z,21.73
2018-11-21T15:26:15.611Z,23.73
2018-11-21T15:28:44.387Z,23.13
2018-11-21T15:31:13.111Z,23.30
2018-11-21T15:33:41.699Z,23.43
2018-11-21T15:36:10.316Z,22.23
2018-11-21T15:38:38.882Z,22.50
2018-11-21T15:41:09.591Z,22.07
2018-11-21T15:43:38.206Z,22.63
2018-11-21T15:46:08.137Z,21.67
2018-11-21T15:48:36.704Z,22.87
2018-11-21T15:51:05.894Z,23.57
2018-11-21T15:53:34.448Z,22.50
2018-11-21T15:56:03.069Z,23.10
2018-11-21T15:58:31.636Z,22.53
2018-11-21T16:01:00.207Z,21.37
2018-11-21T16:03:28.829Z,21.33
2018-11-21T16:05:57.387Z,21.63
2018-11-21T16:08:25.997Z,19.83
2018-11-21T16:10:54.577Z,20.33
2018-11-21T16:13:23.187Z,20.20
2018-11-21T16:15:53.445Z,20.40
2018-11-21T16:18:23.833Z,22.00
2018-11-21T16:20:52.401Z,21.93
2018-11-21T16:23:21.008Z,21.47
2018-11-21T16:25:49.619Z,21.20
2018-11-21T16:28:18.227Z,22.93
2018-11-21T16:30:46.832Z,21.80
2018-11-21T16:33:15.479Z,21.93
2018-11-21T16:35:44.075Z,22.37
2018-11-21T16:38:12.730Z,23.47
2018-11-21T16:40:41.293Z,23.27
2018-11-21T16:43:09.913Z,23.17
2018-11-21T16:45:43.629Z,24.50
2018-11-21T16:48:12.342Z,24.50
2018-11-21T16:50:41.093Z,24.80
2018-11-21T16:53:09.799Z,26.87
2018-11-21T16:55:57.638Z,26.53
2018-11-21T16:58:26.205Z,28.83
2018-11-21T17:00:54.815Z,30.10
2018-11-21T17:03:23.391Z,30.10
2018-11-21T17:05:51.997Z,30.40
2018-11-21T17:08:20.552Z,31.37
2018-11-21T17:10:49.190Z,32.03
2018-11-21T17:13:17.826Z,32.70
2018-11-21T17:15:46.408Z,33.47
2018-11-21T17:18:15.049Z,33.83
2018-11-21T17:20:44.483Z,33.43
2018-11-21T17:23:13.089Z,33.90
2018-11-21T17:25:42.299Z,34.60
2018-11-21T17:28:10.909Z,33.70
2018-11-21T17:30:39.510Z,34.33
2018-11-21T17:33:08.068Z,34.80
2018-11-21T17:35:36.667Z,35.60
2018-11-21T17:38:05.232Z,34.83
2018-11-21T17:40:38.524Z,35.17
2018-11-21T17:43:07.108Z,34.67
2018-11-21T17:45:35.835Z,34.43
2018-11-21T17:48:04.639Z,35.07
2018-11-21T17:50:33.262Z,35.53
2018-11-21T17:53:04.024Z,34.43
2018-11-21T17:55:36.795Z,34.20
2018-11-21T17:58:05.558Z,32.60
2018-11-21T18:00:34.268Z,35.10
2018-11-21T18:03:02.840Z,34.33
2018-11-21T18:05:33.220Z,33.53
2018-11-21T18:08:01.832Z,35.07
2018-11-21T18:10:34.928Z,34.50
2018-11-21T18:13:03.535Z,34.83
2018-11-21T18:15:32.154Z,34.30
2018-11-21T18:18:00.771Z,35.60
2018-11-21T18:20:29.344Z,33.77
2018-11-21T18:22:57.993Z,34.33
2018-11-21T18:25:28.354Z,35.40
2018-11-21T18:27:57.067Z,34.73
2018-11-21T18:30:26.128Z,32.73
2018-11-21T18:32:54.777Z,35.33
2018-11-21T18:35:24.262Z,33.87
2018-11-21T18:37:52.931Z,35.40
2018-11-21T18:40:23.013Z,33.53
2018-11-21T18:42:51.624Z,34.70
2018-11-21T18:45:32.272Z,34.10
2018-11-21T18:48:00.950Z,34.63
2018-11-21T18:50:29.600Z,32.77
2018-11-21T18:52:59.407Z,33.47
2018-11-21T18:55:36.713Z,32.03
2018-11-21T18:58:23.259Z,35.17
2018-11-21T19:00:54.015Z,33.00
2018-11-21T19:03:22.632Z,34.90
2018-11-21T19:05:51.217Z,34.90
2018-11-21T19:08:19.833Z,33.93
2018-11-21T19:10:48.537Z,35.77
2018-11-21T19:13:17.112Z,35.90
2018-11-21T19:15:45.721Z,35.13
2018-11-21T19:18:14.354Z,36.63
2018-11-21T19:20:42.929Z,36.87
2018-11-21T19:23:11.495Z,36.47
2018-11-21T19:25:40.108Z,37.77
2018-11-21T19:28:08.674Z,37.07
2018-11-21T19:30:37.309Z,37.00
2018-11-21T19:33:06.231Z,36.27
2018-11-21T19:35:34.882Z,38.30
2018-11-21T19:38:03.566Z,36.53
2018-11-21T19:40:32.137Z,36.50
2018-11-21T19:43:00.763Z,36.57
2018-11-21T19:45:29.328Z,38.97
2018-11-21T19:47:57.964Z,37.77
2018-11-21T19:50:26.616Z,38.97
2018-11-21T19:52:55.233Z,38.03
2018-11-21T19:55:25.721Z,38.13
2018-11-21T19:57:54.288Z,38.23
2018-11-21T20:00:24.536Z,39.10
2018-11-21T20:02:53.339Z,38.77
2018-11-21T20:05:22.324Z,40.60
2018-11-21T20:07:51.124Z,40.83
2018-11-21T20:10:20.575Z,40.10
2018-11-21T20:12:49.194Z,40.47
2018-11-21T20:15:22.256Z,39.13
2018-11-21T20:17:52.613Z,39.63
2018-11-21T20:20:21.871Z,39.90
2018-11-21T20:22:51.011Z,39.43
2018-11-21T20:25:21.048Z,40.60
2018-11-21T20:28:13.993Z,39.37
2018-11-21T20:33:17.678Z,37.47
2018-11-21T20:35:46.481Z,38.07
2018-11-21T20:38:16.140Z,39.23
2018-11-21T20:40:45.148Z,39.60
2018-11-21T20:43:16.641Z,39.83
2018-11-21T20:45:45.618Z,38.90
2018-11-21T20:48:15.720Z,38.77
2018-11-21T20:50:44.466Z,39.20
2018-11-21T20:53:13.509Z,40.10
2018-11-21T20:55:43.207Z,38.07
2018-11-21T20:58:12.089Z,39.33
2018-11-21T21:00:41.191Z,38.60
2018-11-21T21:03:09.959Z,39.27
2018-11-21T21:05:38.524Z,40.37
2018-11-21T21:08:07.916Z,39.20
2018-11-21T21:10:44.017Z,39.70
2018-11-21T21:13:12.640Z,38.87
2018-11-21T21:15:41.193Z,40.73
2018-11-21T21:18:09.823Z,38.83
2018-11-21T21:20:39.207Z,40.00
2018-11-21T21:23:07.807Z,38.60
2018-11-21T21:25:36.605Z,40.23
2018-11-21T21:28:05.328Z,41.43
2018-11-21T21:30:34.565Z,39.30
2018-11-21T21:33:03.556Z,39.83
2018-11-21T21:35:33.376Z,40.47
2018-11-21T21:38:01.998Z,39.23
2018-11-21T21:40:30.764Z,39.73
2018-11-21T21:42:59.757Z,39.07
2018-11-21T21:45:29.903Z,40.03
2018-11-21T21:47:58.621Z,39.20
2018-11-21T21:50:28.737Z,39.13
2018-11-21T21:52:57.437Z,37.90
2018-11-21T21:55:27.483Z,41.13
2018-11-21T21:57:56.266Z,38.80
2018-11-21T22:00:26.287Z,37.90
2018-11-21T22:02:55.436Z,38.57
2018-11-21T22:05:24.429Z,38.97
2018-11-21T22:07:53.121Z,38.77
2018-11-21T22:10:22.495Z,39.67
2018-11-21T22:12:51.441Z,39.27
2018-11-21T22:15:30.352Z,38.93
2018-11-21T22:18:00.671Z,39.03
2018-11-21T22:20:29.461Z,38.30
2018-11-21T22:22:58.189Z,38.07
2018-11-21T22:25:26.989Z,38.40
2018-11-21T22:27:55.916Z,37.73
2018-11-21T22:30:25.037Z,37.30
2018-11-21T22:32:54.558Z,37.17
2018-11-21T22:35:25.211Z,38.53
2018-11-21T22:37:53.425Z,36.40
2018-11-21T22:40:22.575Z,37.63
2018-11-21T22:42:51.148Z,37.70
2018-11-21T22:45:20.754Z,38.27
2018-11-21T22:47:49.327Z,39.23
2018-11-21T22:50:21.985Z,36.23
2018-11-21T22:52:50.583Z,37.97
2018-11-21T22:55:19.294Z,38.50
2018-11-21T22:57:48.481Z,39.47
2018-11-21T23:00:39.258Z,38.57
2018-11-21T23:03:08.018Z,37.57
2018-11-21T23:05:37.693Z,39.57
2018-11-21T23:08:05.386Z,37.90
2018-11-21T23:10:33.992Z,38.10
2018-11-21T23:13:02.545Z,37.23
2018-11-21T23:15:31.148Z,37.67
2018-11-21T23:17:59.717Z,37.60
2018-11-21T23:20:28.324Z,36.53
2018-11-21T23:22:56.869Z,37.53
2018-11-21T23:25:25.468Z,37.13
2018-11-21T23:27:54.031Z,39.40
2018-11-21T23:30:22.637Z,37.73
2018-11-21T23:32:51.242Z,38.40
2018-11-21T23:35:20.754Z,38.37
2018-11-21T23:37:49.383Z,38.07
2018-11-21T23:40:18.240Z,38.43
2018-11-21T23:42:48.494Z,37.57
2018-11-21T23:45:17.598Z,38.30
2018-11-21T23:47:46.479Z,39.50
2018-11-21T23:50:16.146Z,39.60
2018-11-21T23:52:44.705Z,41.10
2018-11-21T23:55:15.807Z,41.67
2018-11-21T23:57:44.662Z,37.97
